sensor_id;sensor_type;location;lat;lon;timestamp;P1;durP1;ratioP1;P2;durP2;ratioP2
80229;SDS011;69540;42.136;24.742;2024-01-30T00:02:24;6.00;;;4.88;;
80229;SDS011;69540;42.136;24.742;2024-01-30T00:04:50;6.22;;;4.90;;
80229;SDS011;69540;42.136;24.742;2024-01-30T00:07:16;5.97;;;4.50;;
80229;SDS011;69540;42.136;24.742;2024-01-30T00:09:41;5.47;;;4.45;;
80229;SDS011;69540;42.136;24.742;2024-01-30T00:12:07;5.30;;;4.45;;
80229;SDS011;69540;42.136;24.742;2024-01-30T00:14:33;4.78;;;4.03;;
80229;SDS011;69540;42.136;24.742;2024-01-30T00:16:58;3.60;;;3.30;;
80229;SDS011;69540;42.136;24.742;2024-01-30T00:19:24;4.90;;;3.92;;
80229;SDS011;69540;42.136;24.742;2024-01-30T00:21:50;4.38;;;3.97;;
80229;SDS011;69540;42.136;24.742;2024-01-30T00:24:15;5.65;;;4.25;;
80229;SDS011;69540;42.136;24.742;2024-01-30T00:26:41;4.93;;;4.10;;
80229;SDS011;69540;42.136;24.742;2024-01-30T00:29:07;7.13;;;4.97;;
80229;SDS011;69540;42.136;24.742;2024-01-30T00:31:32;6.32;;;4.82;;
80229;SDS011;69540;42.136;24.742;2024-01-30T00:33:58;5.85;;;4.82;;
80229;SDS011;69540;42.136;24.742;2024-01-30T00:36:24;6.70;;;4.95;;
80229;SDS011;69540;42.136;24.742;2024-01-30T00:38:49;5.63;;;4.60;;
80229;SDS011;69540;42.136;24.742;2024-01-30T00:41:17;4.50;;;4.00;;
80229;SDS011;69540;42.136;24.742;2024-01-30T00:43:43;5.28;;;4.30;;
80229;SDS011;69540;42.136;24.742;2024-01-30T00:46:09;3.85;;;3.53;;
80229;SDS011;69540;42.136;24.742;2024-01-30T00:48:35;5.97;;;4.10;;
80229;SDS011;69540;42.136;24.742;2024-01-30T00:51:00;5.03;;;4.53;;
80229;SDS011;69540;42.136;24.742;2024-01-30T00:53:26;5.10;;;4.35;;
80229;SDS011;69540;42.136;24.742;2024-01-30T00:55:52;5.47;;;4.80;;
80229;SDS011;69540;42.136;24.742;2024-01-30T00:58:18;5.07;;;4.57;;
80229;SDS011;69540;42.136;24.742;2024-01-30T01:00:44;5.43;;;4.70;;
80229;SDS011;69540;42.136;24.742;2024-01-30T01:03:10;8.10;;;5.82;;
80229;SDS011;69540;42.136;24.742;2024-01-30T01:05:36;8.32;;;5.20;;
80229;SDS011;69540;42.136;24.742;2024-01-30T01:08:01;8.15;;;5.70;;
80229;SDS011;69540;42.136;24.742;2024-01-30T01:10:27;6.15;;;4.85;;
80229;SDS011;69540;42.136;24.742;2024-01-30T01:12:53;9.00;;;5.68;;
80229;SDS011;69540;42.136;24.742;2024-01-30T01:15:19;8.40;;;4.90;;
80229;SDS011;69540;42.136;24.742;2024-01-30T01:17:45;6.68;;;4.97;;
80229;SDS011;69540;42.136;24.742;2024-01-30T01:20:11;5.70;;;5.10;;
80229;SDS011;69540;42.136;24.742;2024-01-30T01:22:37;6.38;;;5.25;;
80229;SDS011;69540;42.136;24.742;2024-01-30T01:25:04;8.52;;;4.90;;
80229;SDS011;69540;42.136;24.742;2024-01-30T01:27:33;6.47;;;5.10;;
80229;SDS011;69540;42.136;24.742;2024-01-30T01:29:59;7.60;;;5.60;;
80229;SDS011;69540;42.136;24.742;2024-01-30T01:32:25;5.32;;;4.80;;
80229;SDS011;69540;42.136;24.742;2024-01-30T01:34:51;5.65;;;5.00;;
80229;SDS011;69540;42.136;24.742;2024-01-30T01:37:17;5.28;;;4.32;;
80229;SDS011;69540;42.136;24.742;2024-01-30T01:39:43;5.13;;;4.15;;
80229;SDS011;69540;42.136;24.742;2024-01-30T01:42:08;6.07;;;4.22;;
80229;SDS011;69540;42.136;24.742;2024-01-30T01:44:34;5.15;;;4.45;;
80229;SDS011;69540;42.136;24.742;2024-01-30T01:47:00;5.18;;;4.68;;
80229;SDS011;69540;42.136;24.742;2024-01-30T01:49:26;5.72;;;4.68;;
80229;SDS011;69540;42.136;24.742;2024-01-30T01:51:54;5.35;;;4.30;;
80229;SDS011;69540;42.136;24.742;2024-01-30T01:54:23;4.95;;;4.45;;
80229;SDS011;69540;42.136;24.742;2024-01-30T01:56:51;6.07;;;4.75;;
80229;SDS011;69540;42.136;24.742;2024-01-30T01:59:18;6.53;;;4.93;;
80229;SDS011;69540;42.136;24.742;2024-01-30T02:01:45;5.43;;;4.90;;
80229;SDS011;69540;42.136;24.742;2024-01-30T02:04:14;6.68;;;5.35;;
80229;SDS011;69540;42.136;24.742;2024-01-30T02:06:40;6.18;;;5.40;;
80229;SDS011;69540;42.136;24.742;2024-01-30T02:09:07;6.20;;;5.18;;
80229;SDS011;69540;42.136;24.742;2024-01-30T02:11:34;6.95;;;4.85;;
80229;SDS011;69540;42.136;24.742;2024-01-30T02:14:03;5.95;;;5.07;;
80229;SDS011;69540;42.136;24.742;2024-01-30T02:16:29;6.70;;;5.40;;
80229;SDS011;69540;42.136;24.742;2024-01-30T02:18:55;6.82;;;5.57;;
80229;SDS011;69540;42.136;24.742;2024-01-30T02:21:20;5.47;;;4.85;;
80229;SDS011;69540;42.136;24.742;2024-01-30T02:23:46;7.30;;;5.68;;
80229;SDS011;69540;42.136;24.742;2024-01-30T02:26:13;6.65;;;5.60;;
80229;SDS011;69540;42.136;24.742;2024-01-30T02:28:39;6.40;;;5.13;;
80229;SDS011;69540;42.136;24.742;2024-01-30T02:31:05;8.45;;;5.18;;
80229;SDS011;69540;42.136;24.742;2024-01-30T02:33:30;5.63;;;4.95;;
80229;SDS011;69540;42.136;24.742;2024-01-30T02:35:56;7.15;;;5.68;;
80229;SDS011;69540;42.136;24.742;2024-01-30T02:38:22;6.13;;;5.40;;
80229;SDS011;69540;42.136;24.742;2024-01-30T02:40:51;7.15;;;5.65;;
80229;SDS011;69540;42.136;24.742;2024-01-30T02:43:17;9.40;;;5.68;;
80229;SDS011;69540;42.136;24.742;2024-01-30T02:45:43;8.18;;;6.25;;
80229;SDS011;69540;42.136;24.742;2024-01-30T02:48:09;6.75;;;5.95;;
80229;SDS011;69540;42.136;24.742;2024-01-30T02:50:35;9.43;;;6.00;;
80229;SDS011;69540;42.136;24.742;2024-01-30T02:53:00;7.35;;;5.80;;
80229;SDS011;69540;42.136;24.742;2024-01-30T02:55:26;8.73;;;6.28;;
80229;SDS011;69540;42.136;24.742;2024-01-30T02:57:52;8.40;;;6.68;;
80229;SDS011;69540;42.136;24.742;2024-01-30T03:00:18;8.20;;;6.65;;
80229;SDS011;69540;42.136;24.742;2024-01-30T03:02:44;8.63;;;6.47;;
80229;SDS011;69540;42.136;24.742;2024-01-30T03:05:10;9.95;;;6.72;;
80229;SDS011;69540;42.136;24.742;2024-01-30T03:07:36;9.95;;;7.25;;
80229;SDS011;69540;42.136;24.742;2024-01-30T03:10:02;7.60;;;6.28;;
80229;SDS011;69540;42.136;24.742;2024-01-30T03:12:29;12.77;;;7.25;;
80229;SDS011;69540;42.136;24.742;2024-01-30T03:14:54;12.60;;;6.88;;
80229;SDS011;69540;42.136;24.742;2024-01-30T03:17:20;7.53;;;6.22;;
80229;SDS011;69540;42.136;24.742;2024-01-30T03:19:46;9.10;;;6.45;;
80229;SDS011;69540;42.136;24.742;2024-01-30T03:22:11;7.63;;;6.28;;
80229;SDS011;69540;42.136;24.742;2024-01-30T03:24:38;9.57;;;7.25;;
80229;SDS011;69540;42.136;24.742;2024-01-30T03:27:03;8.70;;;6.40;;
80229;SDS011;69540;42.136;24.742;2024-01-30T03:29:29;8.75;;;6.50;;
80229;SDS011;69540;42.136;24.742;2024-01-30T03:31:55;8.32;;;6.28;;
80229;SDS011;69540;42.136;24.742;2024-01-30T03:34:20;9.80;;;6.85;;
80229;SDS011;69540;42.136;24.742;2024-01-30T03:36:46;10.50;;;6.93;;
80229;SDS011;69540;42.136;24.742;2024-01-30T03:39:12;8.20;;;6.82;;
80229;SDS011;69540;42.136;24.742;2024-01-30T03:41:37;9.65;;;6.38;;
80229;SDS011;69540;42.136;24.742;2024-01-30T03:44:03;8.13;;;6.00;;
80229;SDS011;69540;42.136;24.742;2024-01-30T03:46:29;8.05;;;5.90;;
80229;SDS011;69540;42.136;24.742;2024-01-30T03:48:54;8.07;;;6.30;;
80229;SDS011;69540;42.136;24.742;2024-01-30T03:51:20;7.97;;;6.15;;
80229;SDS011;69540;42.136;24.742;2024-01-30T03:53:46;7.13;;;5.75;;
80229;SDS011;69540;42.136;24.742;2024-01-30T03:56:11;8.15;;;6.07;;
80229;SDS011;69540;42.136;24.742;2024-01-30T03:58:40;8.45;;;6.22;;
80229;SDS011;69540;42.136;24.742;2024-01-30T04:01:06;8.73;;;5.85;;
80229;SDS011;69540;42.136;24.742;2024-01-30T04:03:32;7.75;;;5.95;;
80229;SDS011;69540;42.136;24.742;2024-01-30T04:05:58;9.68;;;5.80;;
80229;SDS011;69540;42.136;24.742;2024-01-30T04:08:23;8.00;;;5.68;;
80229;SDS011;69540;42.136;24.742;2024-01-30T04:10:49;7.78;;;5.88;;
80229;SDS011;69540;42.136;24.742;2024-01-30T04:13:15;7.35;;;5.53;;
80229;SDS011;69540;42.136;24.742;2024-01-30T04:15:40;8.98;;;6.22;;
80229;SDS011;69540;42.136;24.742;2024-01-30T04:18:06;7.88;;;6.10;;
80229;SDS011;69540;42.136;24.742;2024-01-30T04:20:32;10.77;;;6.50;;
80229;SDS011;69540;42.136;24.742;2024-01-30T04:22:58;8.18;;;6.13;;
80229;SDS011;69540;42.136;24.742;2024-01-30T04:25:23;8.48;;;6.32;;
80229;SDS011;69540;42.136;24.742;2024-01-30T04:27:49;8.07;;;6.30;;
80229;SDS011;69540;42.136;24.742;2024-01-30T04:30:14;10.50;;;6.25;;
80229;SDS011;69540;42.136;24.742;2024-01-30T04:32:40;11.20;;;6.53;;
80229;SDS011;69540;42.136;24.742;2024-01-30T04:35:06;8.27;;;5.82;;
80229;SDS011;69540;42.136;24.742;2024-01-30T04:37:32;8.50;;;6.43;;
80229;SDS011;69540;42.136;24.742;2024-01-30T04:39:57;8.55;;;6.63;;
80229;SDS011;69540;42.136;24.742;2024-01-30T04:42:23;10.55;;;6.53;;
80229;SDS011;69540;42.136;24.742;2024-01-30T04:44:49;9.38;;;6.45;;
80229;SDS011;69540;42.136;24.742;2024-01-30T04:47:15;9.65;;;7.05;;
80229;SDS011;69540;42.136;24.742;2024-01-30T04:49:41;9.98;;;7.43;;
80229;SDS011;69540;42.136;24.742;2024-01-30T04:52:07;9.02;;;6.85;;
80229;SDS011;69540;42.136;24.742;2024-01-30T04:54:33;8.63;;;6.43;;
80229;SDS011;69540;42.136;24.742;2024-01-30T04:57:00;9.60;;;7.05;;
80229;SDS011;69540;42.136;24.742;2024-01-30T04:59:26;10.48;;;6.97;;
80229;SDS011;69540;42.136;24.742;2024-01-30T05:01:52;9.93;;;7.30;;
80229;SDS011;69540;42.136;24.742;2024-01-30T05:04:19;10.75;;;7.18;;
80229;SDS011;69540;42.136;24.742;2024-01-30T05:06:46;10.68;;;7.20;;
80229;SDS011;69540;42.136;24.742;2024-01-30T05:09:11;11.57;;;7.75;;
80229;SDS011;69540;42.136;24.742;2024-01-30T05:11:40;10.35;;;7.22;;
80229;SDS011;69540;42.136;24.742;2024-01-30T05:14:06;10.20;;;7.47;;
80229;SDS011;69540;42.136;24.742;2024-01-30T05:16:34;10.27;;;7.45;;
80229;SDS011;69540;42.136;24.742;2024-01-30T05:19:00;9.93;;;7.45;;
80229;SDS011;69540;42.136;24.742;2024-01-30T05:21:26;11.52;;;7.25;;
80229;SDS011;69540;42.136;24.742;2024-01-30T05:23:51;9.68;;;7.78;;
80229;SDS011;69540;42.136;24.742;2024-01-30T05:26:17;11.60;;;7.55;;
80229;SDS011;69540;42.136;24.742;2024-01-30T05:28:43;10.00;;;7.30;;
80229;SDS011;69540;42.136;24.742;2024-01-30T05:31:12;12.32;;;7.97;;
80229;SDS011;69540;42.136;24.742;2024-01-30T05:33:37;11.88;;;8.07;;
80229;SDS011;69540;42.136;24.742;2024-01-30T05:36:03;13.27;;;9.05;;
80229;SDS011;69540;42.136;24.742;2024-01-30T05:38:29;10.75;;;7.80;;
80229;SDS011;69540;42.136;24.742;2024-01-30T05:40:57;10.60;;;8.05;;
80229;SDS011;69540;42.136;24.742;2024-01-30T05:43:23;12.52;;;7.93;;
80229;SDS011;69540;42.136;24.742;2024-01-30T05:45:49;10.25;;;7.70;;
80229;SDS011;69540;42.136;24.742;2024-01-30T05:48:15;13.75;;;8.77;;
80229;SDS011;69540;42.136;24.742;2024-01-30T05:50:41;13.27;;;8.88;;
80229;SDS011;69540;42.136;24.742;2024-01-30T05:53:07;11.55;;;8.02;;
80229;SDS011;69540;42.136;24.742;2024-01-30T05:55:32;12.73;;;8.57;;
80229;SDS011;69540;42.136;24.742;2024-01-30T05:57:58;12.63;;;8.15;;
80229;SDS011;69540;42.136;24.742;2024-01-30T06:00:24;14.13;;;8.32;;
80229;SDS011;69540;42.136;24.742;2024-01-30T06:02:49;13.38;;;8.48;;
80229;SDS011;69540;42.136;24.742;2024-01-30T06:05:15;10.75;;;7.95;;
80229;SDS011;69540;42.136;24.742;2024-01-30T06:07:41;13.18;;;8.25;;
80229;SDS011;69540;42.136;24.742;2024-01-30T06:10:07;11.63;;;7.47;;
80229;SDS011;69540;42.136;24.742;2024-01-30T06:12:34;9.93;;;7.68;;
80229;SDS011;69540;42.136;24.742;2024-01-30T06:15:00;10.57;;;7.93;;
80229;SDS011;69540;42.136;24.742;2024-01-30T06:17:26;11.23;;;7.95;;
80229;SDS011;69540;42.136;24.742;2024-01-30T06:19:51;12.38;;;8.60;;
80229;SDS011;69540;42.136;24.742;2024-01-30T06:22:17;11.73;;;8.07;;
80229;SDS011;69540;42.136;24.742;2024-01-30T06:24:43;15.48;;;8.00;;
80229;SDS011;69540;42.136;24.742;2024-01-30T06:27:15;11.90;;;7.73;;
80229;SDS011;69540;42.136;24.742;2024-01-30T06:29:41;10.93;;;8.32;;
80229;SDS011;69540;42.136;24.742;2024-01-30T06:32:08;11.45;;;8.60;;
80229;SDS011;69540;42.136;24.742;2024-01-30T06:34:33;12.25;;;8.10;;
80229;SDS011;69540;42.136;24.742;2024-01-30T06:36:59;11.25;;;8.40;;
80229;SDS011;69540;42.136;24.742;2024-01-30T06:39:25;11.68;;;7.55;;
80229;SDS011;69540;42.136;24.742;2024-01-30T06:41:52;13.68;;;8.00;;
80229;SDS011;69540;42.136;24.742;2024-01-30T06:44:17;9.40;;;8.18;;
80229;SDS011;69540;42.136;24.742;2024-01-30T06:46:43;14.88;;;7.97;;
80229;SDS011;69540;42.136;24.742;2024-01-30T06:49:09;11.48;;;8.27;;
80229;SDS011;69540;42.136;24.742;2024-01-30T06:51:34;10.30;;;8.00;;
80229;SDS011;69540;42.136;24.742;2024-01-30T06:54:00;11.52;;;8.07;;
80229;SDS011;69540;42.136;24.742;2024-01-30T06:56:26;9.38;;;8.00;;
80229;SDS011;69540;42.136;24.742;2024-01-30T06:58:53;10.02;;;7.22;;
80229;SDS011;69540;42.136;24.742;2024-01-30T07:01:18;11.27;;;8.20;;
80229;SDS011;69540;42.136;24.742;2024-01-30T07:03:44;11.30;;;7.95;;
80229;SDS011;69540;42.136;24.742;2024-01-30T07:06:10;11.60;;;7.57;;
80229;SDS011;69540;42.136;24.742;2024-01-30T07:08:36;11.00;;;7.90;;
80229;SDS011;69540;42.136;24.742;2024-01-30T07:11:04;12.13;;;7.85;;
80229;SDS011;69540;42.136;24.742;2024-01-30T07:13:30;12.93;;;8.32;;
80229;SDS011;69540;42.136;24.742;2024-01-30T07:15:56;12.65;;;8.13;;
80229;SDS011;69540;42.136;24.742;2024-01-30T07:18:22;12.85;;;7.32;;
80229;SDS011;69540;42.136;24.742;2024-01-30T07:20:48;12.38;;;7.50;;
80229;SDS011;69540;42.136;24.742;2024-01-30T07:23:14;10.18;;;6.85;;
80229;SDS011;69540;42.136;24.742;2024-01-30T07:25:45;8.00;;;6.32;;
80229;SDS011;69540;42.136;24.742;2024-01-30T07:28:13;10.35;;;6.70;;
80229;SDS011;69540;42.136;24.742;2024-01-30T07:30:42;10.60;;;6.63;;
80229;SDS011;69540;42.136;24.742;2024-01-30T07:33:07;8.63;;;6.72;;
80229;SDS011;69540;42.136;24.742;2024-01-30T07:35:34;10.70;;;6.85;;
80229;SDS011;69540;42.136;24.742;2024-01-30T07:38:00;11.63;;;7.00;;
80229;SDS011;69540;42.136;24.742;2024-01-30T07:40:26;12.43;;;8.48;;
80229;SDS011;69540;42.136;24.742;2024-01-30T07:42:52;11.02;;;8.18;;
80229;SDS011;69540;42.136;24.742;2024-01-30T07:45:18;10.13;;;7.72;;
80229;SDS011;69540;42.136;24.742;2024-01-30T07:47:49;14.10;;;7.70;;
80229;SDS011;69540;42.136;24.742;2024-01-30T07:50:15;10.40;;;7.22;;
80229;SDS011;69540;42.136;24.742;2024-01-30T07:52:41;13.43;;;7.82;;
80229;SDS011;69540;42.136;24.742;2024-01-30T07:55:07;9.88;;;7.68;;
80229;SDS011;69540;42.136;24.742;2024-01-30T07:57:33;10.68;;;7.65;;
80229;SDS011;69540;42.136;24.742;2024-01-30T07:59:59;10.43;;;7.38;;
80229;SDS011;69540;42.136;24.742;2024-01-30T08:02:26;9.55;;;6.80;;
80229;SDS011;69540;42.136;24.742;2024-01-30T08:04:51;9.00;;;6.60;;
80229;SDS011;69540;42.136;24.742;2024-01-30T08:07:17;8.93;;;5.97;;
80229;SDS011;69540;42.136;24.742;2024-01-30T08:09:43;6.22;;;5.63;;
80229;SDS011;69540;42.136;24.742;2024-01-30T08:12:09;14.90;;;6.60;;
80229;SDS011;69540;42.136;24.742;2024-01-30T08:14:35;8.50;;;5.97;;
80229;SDS011;69540;42.136;24.742;2024-01-30T08:17:00;8.73;;;6.10;;
80229;SDS011;69540;42.136;24.742;2024-01-30T08:19:26;7.05;;;6.13;;
80229;SDS011;69540;42.136;24.742;2024-01-30T08:21:52;7.75;;;5.35;;
80229;SDS011;69540;42.136;24.742;2024-01-30T08:24:17;7.20;;;5.78;;
80229;SDS011;69540;42.136;24.742;2024-01-30T08:26:43;9.60;;;6.03;;
80229;SDS011;69540;42.136;24.742;2024-01-30T08:29:09;6.78;;;5.50;;
80229;SDS011;69540;42.136;24.742;2024-01-30T08:31:34;7.75;;;5.10;;
80229;SDS011;69540;42.136;24.742;2024-01-30T08:34:00;7.13;;;5.20;;
80229;SDS011;69540;42.136;24.742;2024-01-30T08:36:26;7.45;;;5.13;;
80229;SDS011;69540;42.136;24.742;2024-01-30T08:38:51;9.68;;;5.35;;
80229;SDS011;69540;42.136;24.742;2024-01-30T08:41:17;6.32;;;5.22;;
80229;SDS011;69540;42.136;24.742;2024-01-30T08:43:43;6.30;;;5.35;;
80229;SDS011;69540;42.136;24.742;2024-01-30T08:46:09;5.95;;;4.65;;
80229;SDS011;69540;42.136;24.742;2024-01-30T08:48:35;5.18;;;4.57;;
80229;SDS011;69540;42.136;24.742;2024-01-30T08:51:01;7.53;;;4.60;;
80229;SDS011;69540;42.136;24.742;2024-01-30T08:53:27;6.10;;;4.90;;
80229;SDS011;69540;42.136;24.742;2024-01-30T08:55:53;6.47;;;4.68;;
80229;SDS011;69540;42.136;24.742;2024-01-30T08:58:19;5.32;;;4.78;;
80229;SDS011;69540;42.136;24.742;2024-01-30T09:00:44;7.47;;;5.65;;
80229;SDS011;69540;42.136;24.742;2024-01-30T09:03:10;6.65;;;5.15;;
80229;SDS011;69540;42.136;24.742;2024-01-30T09:05:36;6.72;;;5.00;;
80229;SDS011;69540;42.136;24.742;2024-01-30T09:08:01;7.50;;;4.97;;
80229;SDS011;69540;42.136;24.742;2024-01-30T09:10:27;7.35;;;5.93;;
80229;SDS011;69540;42.136;24.742;2024-01-30T09:12:53;8.18;;;4.57;;
80229;SDS011;69540;42.136;24.742;2024-01-30T09:15:18;5.45;;;4.80;;
80229;SDS011;69540;42.136;24.742;2024-01-30T09:17:44;5.85;;;4.53;;
80229;SDS011;69540;42.136;24.742;2024-01-30T09:20:10;4.85;;;4.32;;
80229;SDS011;69540;42.136;24.742;2024-01-30T09:22:36;5.93;;;4.88;;
80229;SDS011;69540;42.136;24.742;2024-01-30T09:25:02;5.03;;;4.32;;
80229;SDS011;69540;42.136;24.742;2024-01-30T09:27:28;5.32;;;4.78;;
80229;SDS011;69540;42.136;24.742;2024-01-30T09:29:53;6.03;;;4.90;;
80229;SDS011;69540;42.136;24.742;2024-01-30T09:32:19;6.85;;;5.28;;
80229;SDS011;69540;42.136;24.742;2024-01-30T09:34:45;6.53;;;4.72;;
80229;SDS011;69540;42.136;24.742;2024-01-30T09:37:11;6.82;;;5.55;;
80229;SDS011;69540;42.136;24.742;2024-01-30T09:39:36;6.13;;;4.97;;
80229;SDS011;69540;42.136;24.742;2024-01-30T09:44:34;6.22;;;5.30;;
80229;SDS011;69540;42.136;24.742;2024-01-30T09:47:01;8.88;;;5.72;;
80229;SDS011;69540;42.136;24.742;2024-01-30T09:49:33;8.52;;;6.25;;
80229;SDS011;69540;42.136;24.742;2024-01-30T09:52:00;8.57;;;6.45;;
80229;SDS011;69540;42.136;24.742;2024-01-30T09:54:29;10.10;;;6.40;;
80229;SDS011;69540;42.136;24.742;2024-01-30T09:56:55;9.75;;;6.55;;
80229;SDS011;69540;42.136;24.742;2024-01-30T09:59:21;7.10;;;5.80;;
80229;SDS011;69540;42.136;24.742;2024-01-30T10:01:47;8.35;;;6.00;;
80229;SDS011;69540;42.136;24.742;2024-01-30T10:04:13;8.75;;;6.50;;
80229;SDS011;69540;42.136;24.742;2024-01-30T10:06:38;7.35;;;6.10;;
80229;SDS011;69540;42.136;24.742;2024-01-30T10:09:05;7.18;;;5.45;;
80229;SDS011;69540;42.136;24.742;2024-01-30T10:11:31;7.18;;;5.53;;
80229;SDS011;69540;42.136;24.742;2024-01-30T10:13:57;7.25;;;5.82;;
80229;SDS011;69540;42.136;24.742;2024-01-30T10:16:22;6.65;;;5.93;;
80229;SDS011;69540;42.136;24.742;2024-01-30T10:18:48;7.97;;;5.18;;
80229;SDS011;69540;42.136;24.742;2024-01-30T10:21:14;5.47;;;4.85;;
80229;SDS011;69540;42.136;24.742;2024-01-30T10:23:41;6.18;;;4.72;;
80229;SDS011;69540;42.136;24.742;2024-01-30T10:26:09;5.50;;;4.93;;
80229;SDS011;69540;42.136;24.742;2024-01-30T10:28:35;5.95;;;5.13;;
80229;SDS011;69540;42.136;24.742;2024-01-30T10:31:01;6.63;;;4.40;;
80229;SDS011;69540;42.136;24.742;2024-01-30T10:33:29;7.40;;;4.53;;
80229;SDS011;69540;42.136;24.742;2024-01-30T10:35:57;7.47;;;4.43;;
80229;SDS011;69540;42.136;24.742;2024-01-30T10:38:28;11.02;;;4.30;;
80229;SDS011;69540;42.136;24.742;2024-01-30T10:40:59;4.72;;;3.85;;
80229;SDS011;69540;42.136;24.742;2024-01-30T10:43:35;4.72;;;4.18;;
80229;SDS011;69540;42.136;24.742;2024-01-30T10:46:10;5.60;;;4.20;;
80229;SDS011;69540;42.136;24.742;2024-01-30T10:51:20;3.92;;;3.50;;
80229;SDS011;69540;42.136;24.742;2024-01-30T10:53:47;4.80;;;4.30;;
80229;SDS011;69540;42.136;24.742;2024-01-30T10:56:16;5.50;;;4.22;;
80229;SDS011;69540;42.136;24.742;2024-01-30T10:58:42;6.47;;;4.22;;
80229;SDS011;69540;42.136;24.742;2024-01-30T11:01:08;5.38;;;4.30;;
80229;SDS011;69540;42.136;24.742;2024-01-30T11:03:34;8.82;;;4.63;;
80229;SDS011;69540;42.136;24.742;2024-01-30T11:06:02;4.78;;;4.22;;
80229;SDS011;69540;42.136;24.742;2024-01-30T11:08:28;4.90;;;4.05;;
80229;SDS011;69540;42.136;24.742;2024-01-30T11:10:57;5.28;;;4.05;;
80229;SDS011;69540;42.136;24.742;2024-01-30T11:13:29;5.32;;;4.65;;
80229;SDS011;69540;42.136;24.742;2024-01-30T11:15:59;5.43;;;4.50;;
80229;SDS011;69540;42.136;24.742;2024-01-30T11:18:28;4.95;;;4.47;;
80229;SDS011;69540;42.136;24.742;2024-01-30T11:20:56;6.50;;;4.50;;
80229;SDS011;69540;42.136;24.742;2024-01-30T11:23:23;4.93;;;4.35;;
80229;SDS011;69540;42.136;24.742;2024-01-30T11:25:48;5.20;;;3.95;;
80229;SDS011;69540;42.136;24.742;2024-01-30T11:28:17;5.13;;;3.55;;
80229;SDS011;69540;42.136;24.742;2024-01-30T11:30:43;3.92;;;3.30;;
80229;SDS011;69540;42.136;24.742;2024-01-30T11:33:15;3.58;;;3.28;;
80229;SDS011;69540;42.136;24.742;2024-01-30T11:35:52;3.10;;;2.90;;
80229;SDS011;69540;42.136;24.742;2024-01-30T11:38:18;3.08;;;2.80;;
80229;SDS011;69540;42.136;24.742;2024-01-30T11:40:44;3.60;;;3.30;;
80229;SDS011;69540;42.136;24.742;2024-01-30T11:43:10;3.00;;;2.80;;
80229;SDS011;69540;42.136;24.742;2024-01-30T11:45:37;3.33;;;3.13;;
80229;SDS011;69540;42.136;24.742;2024-01-30T11:48:02;3.97;;;3.22;;
80229;SDS011;69540;42.136;24.742;2024-01-30T11:50:29;3.85;;;3.55;;
80229;SDS011;69540;42.136;24.742;2024-01-30T11:53:00;4.05;;;3.65;;
80229;SDS011;69540;42.136;24.742;2024-01-30T11:55:26;4.22;;;3.40;;
80229;SDS011;69540;42.136;24.742;2024-01-30T11:57:57;4.00;;;3.40;;
80229;SDS011;69540;42.136;24.742;2024-01-30T12:00:23;5.55;;;3.35;;
80229;SDS011;69540;42.136;24.742;2024-01-30T12:02:50;3.30;;;3.00;;
80229;SDS011;69540;42.136;24.742;2024-01-30T12:05:20;3.63;;;3.33;;
80229;SDS011;69540;42.136;24.742;2024-01-30T12:07:47;3.17;;;2.88;;
80229;SDS011;69540;42.136;24.742;2024-01-30T12:10:13;3.25;;;2.95;;
80229;SDS011;69540;42.136;24.742;2024-01-30T12:12:39;3.10;;;2.80;;
80229;SDS011;69540;42.136;24.742;2024-01-30T12:15:07;2.90;;;2.70;;
80229;SDS011;69540;42.136;24.742;2024-01-30T12:17:33;3.38;;;2.78;;
80229;SDS011;69540;42.136;24.742;2024-01-30T12:20:09;3.22;;;2.92;;
80229;SDS011;69540;42.136;24.742;2024-01-30T12:22:40;6.30;;;3.00;;
80229;SDS011;69540;42.136;24.742;2024-01-30T12:25:10;3.30;;;3.10;;
80229;SDS011;69540;42.136;24.742;2024-01-30T12:27:42;3.45;;;2.90;;
80229;SDS011;69540;42.136;24.742;2024-01-30T12:30:11;2.88;;;2.60;;
80229;SDS011;69540;42.136;24.742;2024-01-30T12:32:39;3.10;;;2.90;;
80229;SDS011;69540;42.136;24.742;2024-01-30T12:35:13;3.25;;;2.95;;
80229;SDS011;69540;42.136;24.742;2024-01-30T12:37:40;4.32;;;3.47;;
80229;SDS011;69540;42.136;24.742;2024-01-30T12:40:07;3.80;;;3.40;;
80229;SDS011;69540;42.136;24.742;2024-01-30T12:42:34;4.18;;;3.78;;
80229;SDS011;69540;42.136;24.742;2024-01-30T12:45:02;3.95;;;3.50;;
80229;SDS011;69540;42.136;24.742;2024-01-30T12:47:29;4.20;;;3.58;;
80229;SDS011;69540;42.136;24.742;2024-01-30T12:49:55;3.50;;;3.20;;
80229;SDS011;69540;42.136;24.742;2024-01-30T12:52:21;6.28;;;3.38;;
80229;SDS011;69540;42.136;24.742;2024-01-30T12:54:47;3.70;;;3.30;;
80229;SDS011;69540;42.136;24.742;2024-01-30T12:57:14;3.50;;;3.20;;
80229;SDS011;69540;42.136;24.742;2024-01-30T12:59:40;3.17;;;2.97;;
80229;SDS011;69540;42.136;24.742;2024-01-30T13:02:05;4.18;;;3.58;;
80229;SDS011;69540;42.136;24.742;2024-01-30T13:04:32;3.97;;;3.58;;
80229;SDS011;69540;42.136;24.742;2024-01-30T13:06:58;4.32;;;3.70;;
80229;SDS011;69540;42.136;24.742;2024-01-30T13:09:25;6.15;;;5.28;;
80229;SDS011;69540;42.136;24.742;2024-01-30T13:11:51;5.50;;;4.68;;
80229;SDS011;69540;42.136;24.742;2024-01-30T13:14:17;6.82;;;4.70;;
80229;SDS011;69540;42.136;24.742;2024-01-30T13:16:43;4.75;;;3.67;;
80229;SDS011;69540;42.136;24.742;2024-01-30T13:19:09;4.97;;;3.92;;
80229;SDS011;69540;42.136;24.742;2024-01-30T13:21:35;5.65;;;4.00;;
80229;SDS011;69540;42.136;24.742;2024-01-30T13:24:00;4.38;;;3.90;;
80229;SDS011;69540;42.136;24.742;2024-01-30T13:26:26;5.90;;;4.30;;
80229;SDS011;69540;42.136;24.742;2024-01-30T13:28:52;4.22;;;3.80;;
80229;SDS011;69540;42.136;24.742;2024-01-30T13:31:17;5.13;;;4.13;;
80229;SDS011;69540;42.136;24.742;2024-01-30T13:33:44;5.57;;;4.07;;
80229;SDS011;69540;42.136;24.742;2024-01-30T13:36:11;5.13;;;4.20;;
80229;SDS011;69540;42.136;24.742;2024-01-30T13:38:37;10.55;;;4.78;;
80229;SDS011;69540;42.136;24.742;2024-01-30T13:41:04;6.90;;;3.92;;
80229;SDS011;69540;42.136;24.742;2024-01-30T13:43:30;6.38;;;4.55;;
80229;SDS011;69540;42.136;24.742;2024-01-30T13:45:55;7.72;;;4.47;;
80229;SDS011;69540;42.136;24.742;2024-01-30T13:48:21;8.40;;;4.85;;
80229;SDS011;69540;42.136;24.742;2024-01-30T13:50:47;7.85;;;4.97;;
80229;SDS011;69540;42.136;24.742;2024-01-30T13:53:13;5.40;;;4.90;;
80229;SDS011;69540;42.136;24.742;2024-01-30T13:55:39;8.10;;;4.78;;
80229;SDS011;69540;42.136;24.742;2024-01-30T13:58:05;5.80;;;4.10;;
80229;SDS011;69540;42.136;24.742;2024-01-30T14:00:31;4.63;;;4.13;;
80229;SDS011;69540;42.136;24.742;2024-01-30T14:02:57;4.40;;;4.00;;
80229;SDS011;69540;42.136;24.742;2024-01-30T14:05:24;4.43;;;3.67;;
80229;SDS011;69540;42.136;24.742;2024-01-30T14:07:50;5.10;;;4.00;;
80229;SDS011;69540;42.136;24.742;2024-01-30T14:10:19;4.97;;;3.92;;
80229;SDS011;69540;42.136;24.742;2024-01-30T14:12:45;4.60;;;4.10;;
80229;SDS011;69540;42.136;24.742;2024-01-30T14:15:13;4.95;;;3.78;;
80229;SDS011;69540;42.136;24.742;2024-01-30T14:17:46;4.63;;;3.97;;
80229;SDS011;69540;42.136;24.742;2024-01-30T14:20:13;4.00;;;3.60;;
80229;SDS011;69540;42.136;24.742;2024-01-30T14:22:41;3.92;;;3.55;;
80229;SDS011;69540;42.136;24.742;2024-01-30T14:25:07;5.82;;;4.20;;
80229;SDS011;69540;42.136;24.742;2024-01-30T14:27:34;4.47;;;4.03;;
80229;SDS011;69540;42.136;24.742;2024-01-30T14:30:00;4.78;;;4.28;;
80229;SDS011;69540;42.136;24.742;2024-01-30T14:32:26;5.70;;;3.90;;